sensor_id;sensor_type;location;lat;lon;timestamp;pressure;altitude;pressure_sealevel;temperature;humidity
69127;BME280;56688;50.234;19.292;2023-12-14T00:02:01;97185.84;;;5.49;79.74
69127;BME280;56688;50.234;19.292;2023-12-14T00:04:28;97188.20;;;5.48;79.68
69127;BME280;56688;50.234;19.292;2023-12-14T00:06:55;97188.08;;;5.46;79.40
69127;BME280;56688;50.234;19.292;2023-12-14T00:09:22;97189.65;;;5.44;79.46
69127;BME280;56688;50.234;19.292;2023-12-14T00:11:49;97193.42;;;5.42;79.60
69127;BME280;56688;50.234;19.292;2023-12-14T00:14:16;97198.31;;;5.41;79.65
69127;BME280;56688;50.234;19.292;2023-12-14T00:16:43;97206.23;;;5.43;79.81
69127;BME280;56688;50.234;19.292;2023-12-14T00:19:10;97206.39;;;5.45;80.01
69127;BME280;56688;50.234;19.292;2023-12-14T00:21:37;97214.24;;;5.49;79.88
69127;BME280;56688;50.234;19.292;2023-12-14T00:24:04;97216.41;;;5.50;79.59
69127;BME280;56688;50.234;19.292;2023-12-14T00:26:31;97224.08;;;5.49;79.51
69127;BME280;56688;50.234;19.292;2023-12-14T00:28:58;97226.79;;;5.48;79.28
69127;BME280;56688;50.234;19.292;2023-12-14T00:31:28;97229.84;;;5.44;79.31
69127;BME280;56688;50.234;19.292;2023-12-14T00:33:55;97233.73;;;5.43;79.68
69127;BME280;56688;50.234;19.292;2023-12-14T00:36:22;97230.88;;;5.43;79.59
69127;BME280;56688;50.234;19.292;2023-12-14T00:38:49;97234.41;;;5.45;79.58
69127;BME280;56688;50.234;19.292;2023-12-14T00:41:16;97236.48;;;5.47;79.59
69127;BME280;56688;50.234;19.292;2023-12-14T00:43:43;97240.05;;;5.46;79.78
69127;BME280;56688;50.234;19.292;2023-12-14T00:46:10;97247.38;;;5.48;79.56
69127;BME280;56688;50.234;19.292;2023-12-14T00:48:38;97249.04;;;5.48;79.45
69127;BME280;56688;50.234;19.292;2023-12-14T00:51:05;97256.80;;;5.43;79.16
69127;BME280;56688;50.234;19.292;2023-12-14T00:53:32;97265.26;;;5.38;79.36
69127;BME280;56688;50.234;19.292;2023-12-14T00:55:59;97261.83;;;5.34;79.59
69127;BME280;56688;50.234;19.292;2023-12-14T00:58:26;97265.45;;;5.33;79.82
69127;BME280;56688;50.234;19.292;2023-12-14T01:00:53;97263.58;;;5.34;79.80
69127;BME280;56688;50.234;19.292;2023-12-14T01:03:21;97261.95;;;5.37;79.98
69127;BME280;56688;50.234;19.292;2023-12-14T01:05:48;97268.30;;;5.40;79.76
69127;BME280;56688;50.234;19.292;2023-12-14T01:08:18;97266.71;;;5.41;79.59
69127;BME280;56688;50.234;19.292;2023-12-14T01:10:44;97273.66;;;5.43;79.84
69127;BME280;56688;50.234;19.292;2023-12-14T01:13:11;97270.36;;;5.42;79.72
69127;BME280;56688;50.234;19.292;2023-12-14T01:15:38;97272.55;;;5.41;79.40
69127;BME280;56688;50.234;19.292;2023-12-14T01:18:05;97271.23;;;5.38;79.64
69127;BME280;56688;50.234;19.292;2023-12-14T01:20:33;97271.71;;;5.38;79.80
69127;BME280;56688;50.234;19.292;2023-12-14T01:22:59;97274.70;;;5.40;80.03
69127;BME280;56688;50.234;19.292;2023-12-14T01:25:26;97277.45;;;5.42;79.89
69127;BME280;56688;50.234;19.292;2023-12-14T01:27:54;97273.91;;;5.43;79.87
69127;BME280;56688;50.234;19.292;2023-12-14T01:30:21;97274.02;;;5.43;79.82
69127;BME280;56688;50.234;19.292;2023-12-14T01:32:48;97277.17;;;5.43;79.78
69127;BME280;56688;50.234;19.292;2023-12-14T01:35:15;97274.83;;;5.40;79.32
69127;BME280;56688;50.234;19.292;2023-12-14T01:37:42;97277.08;;;5.38;79.82
69127;BME280;56688;50.234;19.292;2023-12-14T01:40:09;97274.04;;;5.37;79.82
69127;BME280;56688;50.234;19.292;2023-12-14T01:42:37;97268.45;;;5.36;79.91
69127;BME280;56688;50.234;19.292;2023-12-14T01:45:05;97269.40;;;5.40;79.98
69127;BME280;56688;50.234;19.292;2023-12-14T01:47:32;97272.61;;;5.43;79.91
69127;BME280;56688;50.234;19.292;2023-12-14T01:49:59;97268.90;;;5.44;80.02
69127;BME280;56688;50.234;19.292;2023-12-14T01:52:26;97266.39;;;5.44;79.64
69127;BME280;56688;50.234;19.292;2023-12-14T01:54:53;97266.50;;;5.43;79.83
69127;BME280;56688;50.234;19.292;2023-12-14T01:57:22;97271.28;;;5.40;79.57
69127;BME280;56688;50.234;19.292;2023-12-14T01:59:49;97270.55;;;5.38;79.57
69127;BME280;56688;50.234;19.292;2023-12-14T02:02:16;97272.85;;;5.36;79.57
69127;BME280;56688;50.234;19.292;2023-12-14T02:04:43;97272.98;;;5.37;79.88
69127;BME280;56688;50.234;19.292;2023-12-14T02:07:10;97273.23;;;5.39;79.69
69127;BME280;56688;50.234;19.292;2023-12-14T02:09:37;97271.37;;;5.41;79.90
69127;BME280;56688;50.234;19.292;2023-12-14T02:12:05;97276.71;;;5.42;79.79
69127;BME280;56688;50.234;19.292;2023-12-14T02:14:32;97276.48;;;5.43;79.60
69127;BME280;56688;50.234;19.292;2023-12-14T02:16:59;97277.20;;;5.42;79.87
69127;BME280;56688;50.234;19.292;2023-12-14T02:19:26;97274.85;;;5.36;79.54
69127;BME280;56688;50.234;19.292;2023-12-14T02:21:53;97278.22;;;5.37;79.69
69127;BME280;56688;50.234;19.292;2023-12-14T02:24:20;97277.45;;;5.36;79.93
69127;BME280;56688;50.234;19.292;2023-12-14T02:26:47;97277.65;;;5.38;79.99
69127;BME280;56688;50.234;19.292;2023-12-14T02:29:29;97279.34;;;5.40;79.96
69127;BME280;56688;50.234;19.292;2023-12-14T02:31:57;97283.15;;;5.42;80.19
69127;BME280;56688;50.234;19.292;2023-12-14T02:34:24;97283.86;;;5.43;79.88
69127;BME280;56688;50.234;19.292;2023-12-14T02:36:52;97288.09;;;5.43;79.95
69127;BME280;56688;50.234;19.292;2023-12-14T02:39:19;97286.93;;;5.41;79.87
69127;BME280;56688;50.234;19.292;2023-12-14T02:41:46;97286.27;;;5.39;79.68
69127;BME280;56688;50.234;19.292;2023-12-14T02:44:13;97293.48;;;5.39;79.98
69127;BME280;56688;50.234;19.292;2023-12-14T02:46:40;97297.56;;;5.41;79.99
69127;BME280;56688;50.234;19.292;2023-12-14T02:49:08;97297.16;;;5.41;79.95
69127;BME280;56688;50.234;19.292;2023-12-14T02:51:35;97298.79;;;5.47;79.76
69127;BME280;56688;50.234;19.292;2023-12-14T02:54:03;97302.67;;;5.48;79.52
69127;BME280;56688;50.234;19.292;2023-12-14T02:56:30;97304.08;;;5.47;79.40
69127;BME280;56688;50.234;19.292;2023-12-14T02:58:56;97307.66;;;5.46;79.50
69127;BME280;56688;50.234;19.292;2023-12-14T03:01:23;97306.34;;;5.42;79.36
69127;BME280;56688;50.234;19.292;2023-12-14T03:03:50;97308.85;;;5.41;79.56
69127;BME280;56688;50.234;19.292;2023-12-14T03:06:18;97304.69;;;5.40;79.58
69127;BME280;56688;50.234;19.292;2023-12-14T03:08:45;97304.98;;;5.41;80.02
69127;BME280;56688;50.234;19.292;2023-12-14T03:11:21;97308.41;;;5.44;79.88
69127;BME280;56688;50.234;19.292;2023-12-14T03:13:48;97308.77;;;5.47;80.21
69127;BME280;56688;50.234;19.292;2023-12-14T03:16:16;97310.10;;;5.49;80.12
69127;BME280;56688;50.234;19.292;2023-12-14T03:18:43;97314.45;;;5.50;79.72
69127;BME280;56688;50.234;19.292;2023-12-14T03:21:10;97316.05;;;5.50;79.60
69127;BME280;56688;50.234;19.292;2023-12-14T03:23:37;97314.40;;;5.47;79.64
69127;BME280;56688;50.234;19.292;2023-12-14T03:26:04;97319.08;;;5.44;79.57
69127;BME280;56688;50.234;19.292;2023-12-14T03:28:39;97321.36;;;5.44;79.68
69127;BME280;56688;50.234;19.292;2023-12-14T03:31:06;97322.57;;;5.46;79.79
69127;BME280;56688;50.234;19.292;2023-12-14T03:33:33;97328.84;;;5.49;79.97
69127;BME280;56688;50.234;19.292;2023-12-14T03:36:00;97332.29;;;5.51;79.90
69127;BME280;56688;50.234;19.292;2023-12-14T03:38:27;97340.02;;;5.50;80.06
69127;BME280;56688;50.234;19.292;2023-12-14T03:40:54;97351.45;;;5.48;79.84
69127;BME280;56688;50.234;19.292;2023-12-14T03:43:21;97357.31;;;5.45;79.91
69127;BME280;56688;50.234;19.292;2023-12-14T03:45:48;97363.80;;;5.43;80.09
69127;BME280;56688;50.234;19.292;2023-12-14T03:48:15;97366.29;;;5.43;80.13
69127;BME280;56688;50.234;19.292;2023-12-14T03:50:42;97371.21;;;5.45;80.16
69127;BME280;56688;50.234;19.292;2023-12-14T03:53:09;97372.92;;;5.47;80.08
69127;BME280;56688;50.234;19.292;2023-12-14T03:55:36;97375.34;;;5.49;80.35
69127;BME280;56688;50.234;19.292;2023-12-14T03:58:03;97377.52;;;5.51;80.16
69127;BME280;56688;50.234;19.292;2023-12-14T04:00:30;97379.77;;;5.51;79.83
69127;BME280;56688;50.234;19.292;2023-12-14T04:02:57;97381.83;;;5.50;79.78
69127;BME280;56688;50.234;19.292;2023-12-14T04:05:24;97385.23;;;5.47;80.24
69127;BME280;56688;50.234;19.292;2023-12-14T04:07:51;97391.81;;;5.46;79.97
69127;BME280;56688;50.234;19.292;2023-12-14T04:10:18;97396.38;;;5.46;80.29
69127;BME280;56688;50.234;19.292;2023-12-14T04:12:45;97397.14;;;5.48;80.45
69127;BME280;56688;50.234;19.292;2023-12-14T04:15:12;97401.73;;;5.52;80.59
69127;BME280;56688;50.234;19.292;2023-12-14T04:17:39;97404.31;;;5.55;80.40
69127;BME280;56688;50.234;19.292;2023-12-14T04:20:07;97408.92;;;5.58;80.14
69127;BME280;56688;50.234;19.292;2023-12-14T04:22:34;97412.30;;;5.60;80.30
69127;BME280;56688;50.234;19.292;2023-12-14T04:25:02;97416.21;;;5.60;80.24
69127;BME280;56688;50.234;19.292;2023-12-14T04:27:29;97420.16;;;5.56;80.25
69127;BME280;56688;50.234;19.292;2023-12-14T04:29:57;97419.45;;;5.55;80.07
69127;BME280;56688;50.234;19.292;2023-12-14T04:32:24;97422.77;;;5.54;79.93
69127;BME280;56688;50.234;19.292;2023-12-14T04:34:51;97431.63;;;5.54;80.22
69127;BME280;56688;50.234;19.292;2023-12-14T04:37:18;97432.10;;;5.57;80.47
69127;BME280;56688;50.234;19.292;2023-12-14T04:39:45;97435.52;;;5.59;80.07
69127;BME280;56688;50.234;19.292;2023-12-14T04:42:12;97437.44;;;5.62;80.05
69127;BME280;56688;50.234;19.292;2023-12-14T04:44:39;97438.51;;;5.63;80.35
69127;BME280;56688;50.234;19.292;2023-12-14T04:47:06;97440.83;;;5.63;80.02
69127;BME280;56688;50.234;19.292;2023-12-14T04:49:35;97439.80;;;5.61;80.07
69127;BME280;56688;50.234;19.292;2023-12-14T04:52:02;97442.91;;;5.60;79.71
69127;BME280;56688;50.234;19.292;2023-12-14T04:54:29;97444.48;;;5.59;80.11
69127;BME280;56688;50.234;19.292;2023-12-14T04:56:56;97450.43;;;5.61;79.78
69127;BME280;56688;50.234;19.292;2023-12-14T04:59:22;97454.75;;;5.62;79.85
69127;BME280;56688;50.234;19.292;2023-12-14T05:01:50;97455.70;;;5.62;80.32
69127;BME280;56688;50.234;19.292;2023-12-14T05:04:17;97458.48;;;5.63;80.20
69127;BME280;56688;50.234;19.292;2023-12-14T05:06:44;97466.30;;;5.62;79.80
69127;BME280;56688;50.234;19.292;2023-12-14T05:09:11;97469.92;;;5.62;79.69
69127;BME280;56688;50.234;19.292;2023-12-14T05:11:39;97473.60;;;5.57;79.93
69127;BME280;56688;50.234;19.292;2023-12-14T05:14:07;97473.98;;;5.55;79.82
69127;BME280;56688;50.234;19.292;2023-12-14T05:16:34;97480.09;;;5.54;80.06
69127;BME280;56688;50.234;19.292;2023-12-14T05:19:01;97476.48;;;5.55;80.07
69127;BME280;56688;50.234;19.292;2023-12-14T05:21:28;97478.55;;;5.58;80.39
69127;BME280;56688;50.234;19.292;2023-12-14T05:23:55;97484.04;;;5.60;80.05
69127;BME280;56688;50.234;19.292;2023-12-14T05:26:22;97487.53;;;5.62;79.93
69127;BME280;56688;50.234;19.292;2023-12-14T05:28:49;97486.23;;;5.61;79.97
69127;BME280;56688;50.234;19.292;2023-12-14T05:31:16;97489.73;;;5.61;80.02
69127;BME280;56688;50.234;19.292;2023-12-14T05:33:43;97493.86;;;5.57;80.17
69127;BME280;56688;50.234;19.292;2023-12-14T05:36:10;97496.73;;;5.56;79.69
69127;BME280;56688;50.234;19.292;2023-12-14T05:38:38;97500.92;;;5.55;79.96
69127;BME280;56688;50.234;19.292;2023-12-14T05:41:06;97502.11;;;5.55;79.98
69127;BME280;56688;50.234;19.292;2023-12-14T05:43:33;97505.10;;;5.56;80.29
69127;BME280;56688;50.234;19.292;2023-12-14T05:46:00;97517.42;;;5.57;79.80
69127;BME280;56688;50.234;19.292;2023-12-14T05:48:27;97519.33;;;5.56;79.62
69127;BME280;56688;50.234;19.292;2023-12-14T05:50:56;97524.19;;;5.53;80.48
69127;BME280;56688;50.234;19.292;2023-12-14T05:53:23;97528.19;;;5.53;80.18
69127;BME280;56688;50.234;19.292;2023-12-14T05:55:50;97531.06;;;5.49;80.19
69127;BME280;56688;50.234;19.292;2023-12-14T05:58:17;97534.77;;;5.48;80.57
69127;BME280;56688;50.234;19.292;2023-12-14T06:00:45;97536.27;;;5.48;80.26
69127;BME280;56688;50.234;19.292;2023-12-14T06:03:12;97540.77;;;5.49;80.70
69127;BME280;56688;50.234;19.292;2023-12-14T06:05:39;97543.30;;;5.52;80.57
69127;BME280;56688;50.234;19.292;2023-12-14T06:08:06;97544.25;;;5.54;80.47
69127;BME280;56688;50.234;19.292;2023-12-14T06:10:51;97551.80;;;5.56;81.03
69127;BME280;56688;50.234;19.292;2023-12-14T06:13:18;97553.29;;;5.57;80.70
69127;BME280;56688;50.234;19.292;2023-12-14T06:15:44;97554.84;;;5.57;80.39
69127;BME280;56688;50.234;19.292;2023-12-14T06:18:11;97559.04;;;5.54;80.48
69127;BME280;56688;50.234;19.292;2023-12-14T06:20:39;97559.48;;;5.54;80.13
69127;BME280;56688;50.234;19.292;2023-12-14T06:23:07;97567.54;;;5.53;80.44
69127;BME280;56688;50.234;19.292;2023-12-14T06:25:34;97566.33;;;5.54;80.28
69127;BME280;56688;50.234;19.292;2023-12-14T06:28:01;97574.30;;;5.55;80.16
69127;BME280;56688;50.234;19.292;2023-12-14T06:30:28;97579.78;;;5.57;80.38
69127;BME280;56688;50.234;19.292;2023-12-14T06:32:55;97581.98;;;5.58;80.46
69127;BME280;56688;50.234;19.292;2023-12-14T06:35:22;97583.05;;;5.57;79.91
69127;BME280;56688;50.234;19.292;2023-12-14T06:37:49;97585.89;;;5.56;79.97
69127;BME280;56688;50.234;19.292;2023-12-14T06:40:16;97588.73;;;5.53;80.16
69127;BME280;56688;50.234;19.292;2023-12-14T06:42:44;97593.20;;;5.51;80.37
69127;BME280;56688;50.234;19.292;2023-12-14T06:45:11;97594.98;;;5.49;80.36
69127;BME280;56688;50.234;19.292;2023-12-14T06:47:38;97598.56;;;5.49;80.30
69127;BME280;56688;50.234;19.292;2023-12-14T06:50:05;97603.04;;;5.51;80.29
69127;BME280;56688;50.234;19.292;2023-12-14T06:52:32;97611.61;;;5.53;80.47
69127;BME280;56688;50.234;19.292;2023-12-14T06:55:00;97609.48;;;5.55;80.13
69127;BME280;56688;50.234;19.292;2023-12-14T06:57:27;97610.05;;;5.56;80.44
69127;BME280;56688;50.234;19.292;2023-12-14T06:59:55;97611.81;;;5.56;80.06
69127;BME280;56688;50.234;19.292;2023-12-14T07:02:22;97618.10;;;5.54;80.34
69127;BME280;56688;50.234;19.292;2023-12-14T07:04:49;97622.61;;;5.53;80.16
69127;BME280;56688;50.234;19.292;2023-12-14T07:07:16;97623.17;;;5.53;80.00
69127;BME280;56688;50.234;19.292;2023-12-14T07:09:44;97624.38;;;5.55;80.22
69127;BME280;56688;50.234;19.292;2023-12-14T07:12:13;97624.01;;;5.59;80.65
69127;BME280;56688;50.234;19.292;2023-12-14T07:14:40;97628.38;;;5.63;80.71
69127;BME280;56688;50.234;19.292;2023-12-14T07:17:10;97634.02;;;5.66;80.34
69127;BME280;56688;50.234;19.292;2023-12-14T07:19:37;97638.52;;;5.68;80.29
69127;BME280;56688;50.234;19.292;2023-12-14T07:22:04;97638.91;;;5.70;80.36
69127;BME280;56688;50.234;19.292;2023-12-14T07:24:31;97645.30;;;5.69;79.99
69127;BME280;56688;50.234;19.292;2023-12-14T07:27:14;97653.09;;;5.69;79.87
69127;BME280;56688;50.234;19.292;2023-12-14T07:29:41;97658.71;;;5.69;80.24
69127;BME280;56688;50.234;19.292;2023-12-14T07:32:08;97658.40;;;5.73;80.38
69127;BME280;56688;50.234;19.292;2023-12-14T07:34:35;97663.59;;;5.78;80.24
69127;BME280;56688;50.234;19.292;2023-12-14T07:37:02;97669.11;;;5.82;79.92
69127;BME280;56688;50.234;19.292;2023-12-14T07:39:29;97668.03;;;5.85;79.82
69127;BME280;56688;50.234;19.292;2023-12-14T07:41:56;97669.30;;;5.88;79.82
69127;BME280;56688;50.234;19.292;2023-12-14T07:44:23;97677.57;;;5.88;79.41
69127;BME280;56688;50.234;19.292;2023-12-14T07:46:52;97686.11;;;5.86;79.26
69127;BME280;56688;50.234;19.292;2023-12-14T07:49:19;97688.70;;;5.85;79.73
69127;BME280;56688;50.234;19.292;2023-12-14T07:51:47;97694.52;;;5.87;79.31
69127;BME280;56688;50.234;19.292;2023-12-14T07:54:14;97698.66;;;5.89;79.50
69127;BME280;56688;50.234;19.292;2023-12-14T07:56:40;97700.99;;;5.94;79.18
69127;BME280;56688;50.234;19.292;2023-12-14T07:59:07;97704.64;;;5.97;78.98
69127;BME280;56688;50.234;19.292;2023-12-14T08:01:34;97708.48;;;5.99;78.87
69127;BME280;56688;50.234;19.292;2023-12-14T08:04:02;97710.03;;;5.99;78.09
69127;BME280;56688;50.234;19.292;2023-12-14T08:06:30;97714.35;;;5.99;78.34
69127;BME280;56688;50.234;19.292;2023-12-14T08:08:57;97714.48;;;5.96;78.28
69127;BME280;56688;50.234;19.292;2023-12-14T08:11:24;97712.92;;;5.96;78.08
69127;BME280;56688;50.234;19.292;2023-12-14T08:13:51;97710.41;;;5.96;78.20
69127;BME280;56688;50.234;19.292;2023-12-14T08:16:18;97711.98;;;5.99;78.39
69127;BME280;56688;50.234;19.292;2023-12-14T08:18:46;97713.35;;;6.06;78.20
69127;BME280;56688;50.234;19.292;2023-12-14T08:21:14;97717.14;;;6.13;78.26
69127;BME280;56688;50.234;19.292;2023-12-14T08:23:42;97726.73;;;6.19;78.00
69127;BME280;56688;50.234;19.292;2023-12-14T08:26:09;97734.16;;;6.23;78.02
69127;BME280;56688;50.234;19.292;2023-12-14T08:28:39;97738.58;;;6.24;77.83
69127;BME280;56688;50.234;19.292;2023-12-14T08:31:06;97735.48;;;6.24;77.42
69127;BME280;56688;50.234;19.292;2023-12-14T08:33:35;97736.10;;;6.25;77.66
69127;BME280;56688;50.234;19.292;2023-12-14T08:36:02;97738.98;;;6.27;77.63
69127;BME280;56688;50.234;19.292;2023-12-14T08:38:29;97743.70;;;6.30;77.37
69127;BME280;56688;50.234;19.292;2023-12-14T08:40:57;97744.52;;;6.34;77.60
69127;BME280;56688;50.234;19.292;2023-12-14T08:43:24;97755.38;;;6.38;77.75
69127;BME280;56688;50.234;19.292;2023-12-14T08:45:51;97756.59;;;6.38;77.25
69127;BME280;56688;50.234;19.292;2023-12-14T08:48:18;97759.73;;;6.32;76.74
69127;BME280;56688;50.234;19.292;2023-12-14T08:50:45;97764.26;;;6.32;77.07
69127;BME280;56688;50.234;19.292;2023-12-14T08:53:12;97767.55;;;6.28;77.06
69127;BME280;56688;50.234;19.292;2023-12-14T08:55:39;97776.17;;;6.28;77.06
69127;BME280;56688;50.234;19.292;2023-12-14T08:58:07;97780.43;;;6.30;77.28
69127;BME280;56688;50.234;19.292;2023-12-14T09:00:34;97785.33;;;6.33;77.81
69127;BME280;56688;50.234;19.292;2023-12-14T09:03:02;97788.63;;;6.39;78.04
69127;BME280;56688;50.234;19.292;2023-12-14T09:05:29;97786.68;;;6.46;77.85
69127;BME280;56688;50.234;19.292;2023-12-14T09:07:56;97791.93;;;6.52;77.80
69127;BME280;56688;50.234;19.292;2023-12-14T09:10:26;97799.02;;;6.56;77.51
69127;BME280;56688;50.234;19.292;2023-12-14T09:12:53;97804.36;;;6.59;77.53
69127;BME280;56688;50.234;19.292;2023-12-14T09:15:20;97805.91;;;6.56;77.22
69127;BME280;56688;50.234;19.292;2023-12-14T09:17:47;97810.46;;;6.54;77.10
69127;BME280;56688;50.234;19.292;2023-12-14T09:20:14;97813.70;;;6.52;77.11
69127;BME280;56688;50.234;19.292;2023-12-14T09:22:41;97815.71;;;6.51;77.40
69127;BME280;56688;50.234;19.292;2023-12-14T09:25:08;97820.37;;;6.51;77.52
69127;BME280;56688;50.234;19.292;2023-12-14T09:27:36;97818.21;;;6.51;77.42
69127;BME280;56688;50.234;19.292;2023-12-14T09:30:04;97822.73;;;6.49;77.47
69127;BME280;56688;50.234;19.292;2023-12-14T09:32:31;97824.31;;;6.47;77.78
69127;BME280;56688;50.234;19.292;2023-12-14T09:34:59;97823.23;;;6.46;77.62
69127;BME280;56688;50.234;19.292;2023-12-14T09:37:26;97818.77;;;6.44;77.42
69127;BME280;56688;50.234;19.292;2023-12-14T09:39:53;97825.54;;;6.40;77.72
69127;BME280;56688;50.234;19.292;2023-12-14T09:42:21;97825.50;;;6.37;77.79
69127;BME280;56688;50.234;19.292;2023-12-14T09:44:49;97827.91;;;6.36;77.93
69127;BME280;56688;50.234;19.292;2023-12-14T09:47:16;97827.55;;;6.36;78.11
69127;BME280;56688;50.234;19.292;2023-12-14T09:49:44;97833.59;;;6.36;78.36
69127;BME280;56688;50.234;19.292;2023-12-14T09:52:12;97829.48;;;6.36;78.38
69127;BME280;56688;50.234;19.292;2023-12-14T09:54:39;97830.11;;;6.37;78.45
69127;BME280;56688;50.234;19.292;2023-12-14T09:57:06;97834.75;;;6.37;78.42
69127;BME280;56688;50.234;19.292;2023-12-14T09:59:33;97839.69;;;6.35;78.38
69127;BME280;56688;50.234;19.292;2023-12-14T10:02:09;97846.98;;;6.35;78.40
69127;BME280;56688;50.234;19.292;2023-12-14T10:04:38;97846.20;;;6.34;78.19
69127;BME280;56688;50.234;19.292;2023-12-14T10:07:05;97848.11;;;6.36;78.35
69127;BME280;56688;50.234;19.292;2023-12-14T10:09:36;97844.38;;;6.34;78.65
69127;BME280;56688;50.234;19.292;2023-12-14T10:12:06;97849.15;;;6.37;78.63
69127;BME280;56688;50.234;19.292;2023-12-14T10:14:34;97851.50;;;6.36;78.39
69127;BME280;56688;50.234;19.292;2023-12-14T10:17:18;97856.55;;;6.33;78.33
69127;BME280;56688;50.234;19.292;2023-12-14T10:19:47;97857.48;;;6.22;78.32
69127;BME280;56688;50.234;19.292;2023-12-14T10:22:17;97862.89;;;6.18;79.03
69127;BME280;56688;50.234;19.292;2023-12-14T10:24:47;97860.95;;;6.20;79.22
69127;BME280;56688;50.234;19.292;2023-12-14T10:27:15;97864.02;;;6.24;79.70
69127;BME280;56688;50.234;19.292;2023-12-14T10:29:43;97864.00;;;6.29;79.51
69127;BME280;56688;50.234;19.292;2023-12-14T10:32:12;97864.92;;;6.33;79.15
69127;BME280;56688;50.234;19.292;2023-12-14T10:34:39;97863.08;;;6.35;79.31
69127;BME280;56688;50.234;19.292;2023-12-14T10:37:08;97864.51;;;6.39;79.08
69127;BME280;56688;50.234;19.292;2023-12-14T10:39:37;97868.30;;;6.42;78.88
69127;BME280;56688;50.234;19.292;2023-12-14T10:42:08;97868.02;;;6.44;79.23
69127;BME280;56688;50.234;19.292;2023-12-14T10:44:48;97869.98;;;6.47;79.04
69127;BME280;56688;50.234;19.292;2023-12-14T10:47:43;97874.42;;;6.52;79.06
69127;BME280;56688;50.234;19.292;2023-12-14T10:50:12;97878.07;;;6.57;79.08
69127;BME280;56688;50.234;19.292;2023-12-14T10:52:40;97884.91;;;6.60;79.05
69127;BME280;56688;50.234;19.292;2023-12-14T10:55:11;97889.55;;;6.63;78.66
69127;BME280;56688;50.234;19.292;2023-12-14T10:57:40;97892.98;;;6.65;78.69
69127;BME280;56688;50.234;19.292;2023-12-14T11:00:10;97892.45;;;6.64;78.49
69127;BME280;56688;50.234;19.292;2023-12-14T11:02:40;97894.27;;;6.65;78.50
69127;BME280;56688;50.234;19.292;2023-12-14T11:05:12;97900.16;;;6.67;78.47
69127;BME280;56688;50.234;19.292;2023-12-14T11:10:13;97896.23;;;6.73;78.22
69127;BME280;56688;50.234;19.292;2023-12-14T11:15:24;97901.23;;;6.78;78.08
69127;BME280;56688;50.234;19.292;2023-12-14T11:23:15;97907.63;;;6.75;78.41
69127;BME280;56688;50.234;19.292;2023-12-14T11:25:48;97911.79;;;6.77;77.99
69127;BME280;56688;50.234;19.292;2023-12-14T11:28:24;97916.23;;;6.82;78.21
69127;BME280;56688;50.234;19.292;2023-12-14T11:30:54;97917.38;;;6.82;78.00
69127;BME280;56688;50.234;19.292;2023-12-14T11:33:22;97924.02;;;6.83;77.84
69127;BME280;56688;50.234;19.292;2023-12-14T11:35:51;97924.85;;;6.83;77.83
69127;BME280;56688;50.234;19.292;2023-12-14T11:38:20;97924.19;;;6.81;77.75
69127;BME280;56688;50.234;19.292;2023-12-14T11:40:49;97927.06;;;6.80;77.53
69127;BME280;56688;50.234;19.292;2023-12-14T11:43:17;97926.50;;;6.77;77.88
69127;BME280;56688;50.234;19.292;2023-12-14T11:45:48;97928.20;;;6.76;78.14
69127;BME280;56688;50.234;19.292;2023-12-14T11:48:15;97926.17;;;6.75;77.91
69127;BME280;56688;50.234;19.292;2023-12-14T11:50:43;97928.14;;;6.78;78.12
69127;BME280;56688;50.234;19.292;2023-12-14T11:53:11;97932.23;;;6.81;78.41
69127;BME280;56688;50.234;19.292;2023-12-14T11:55:40;97934.27;;;6.83;78.46
69127;BME280;56688;50.234;19.292;2023-12-14T11:58:08;97934.41;;;6.83;77.98
69127;BME280;56688;50.234;19.292;2023-12-14T12:00:37;97938.73;;;6.83;77.79
69127;BME280;56688;50.234;19.292;2023-12-14T12:05:37;97945.76;;;6.76;77.55
69127;BME280;56688;50.234;19.292;2023-12-14T12:08:07;97944.68;;;6.74;77.96
69127;BME280;56688;50.234;19.292;2023-12-14T12:10:36;97943.56;;;6.75;77.97
69127;BME280;56688;50.234;19.292;2023-12-14T12:13:06;97944.66;;;6.76;78.09
69127;BME280;56688;50.234;19.292;2023-12-14T12:15:34;97945.98;;;6.77;77.99
69127;BME280;56688;50.234;19.292;2023-12-14T12:18:05;97947.49;;;6.78;77.87
69127;BME280;56688;50.234;19.292;2023-12-14T12:20:32;97949.73;;;6.77;77.79
69127;BME280;56688;50.234;19.292;2023-12-14T12:23:01;97948.31;;;6.75;77.92
69127;BME280;56688;50.234;19.292;2023-12-14T12:25:28;97950.87;;;6.70;77.60
69127;BME280;56688;50.234;19.292;2023-12-14T12:27:55;97953.42;;;6.64;77.84
69127;BME280;56688;50.234;19.292;2023-12-14T12:30:22;97955.88;;;6.62;78.13
69127;BME280;56688;50.234;19.292;2023-12-14T12:32:50;97958.48;;;6.61;78.42
69127;BME280;56688;50.234;19.292;2023-12-14T12:35:19;97965.34;;;6.64;78.53
69127;BME280;56688;50.234;19.292;2023-12-14T12:37:46;97963.20;;;6.67;78.74
69127;BME280;56688;50.234;19.292;2023-12-14T12:40:13;97965.61;;;6.73;78.69
69127;BME280;56688;50.234;19.292;2023-12-14T12:42:42;97968.48;;;6.77;78.81
69127;BME280;56688;50.234;19.292;2023-12-14T12:45:09;97972.70;;;6.80;78.39
69127;BME280;56688;50.234;19.292;2023-12-14T12:47:37;97978.31;;;6.79;77.98
69127;BME280;56688;50.234;19.292;2023-12-14T12:50:06;97981.73;;;6.82;78.36
69127;BME280;56688;50.234;19.292;2023-12-14T12:52:33;97986.77;;;6.84;78.22
69127;BME280;56688;50.234;19.292;2023-12-14T12:55:00;97986.66;;;6.89;78.43
69127;BME280;56688;50.234;19.292;2023-12-14T12:57:28;97992.48;;;6.94;78.20
69127;BME280;56688;50.234;19.292;2023-12-14T12:59:55;97996.20;;;6.97;78.19
69127;BME280;56688;50.234;19.292;2023-12-14T13:02:22;98000.55;;;6.98;77.81
69127;BME280;56688;50.234;19.292;2023-12-14T13:04:49;98002.48;;;6.98;77.96
69127;BME280;56688;50.234;19.292;2023-12-14T13:07:17;98004.66;;;6.97;78.09
69127;BME280;56688;50.234;19.292;2023-12-14T13:09:45;98012.02;;;6.95;77.98
69127;BME280;56688;50.234;19.292;2023-12-14T13:12:12;98011.02;;;6.91;77.46
69127;BME280;56688;50.234;19.292;2023-12-14T13:14:40;98016.70;;;6.90;78.20
69127;BME280;56688;50.234;19.292;2023-12-14T13:17:08;98016.59;;;6.92;77.80